sensor_id;sensor_type;location;lat;lon;timestamp;temperature;humidity
70676;DHT22;59069;52.242;20.900;2023-09-18T00:01:46;19.58;74.50
70676;DHT22;59069;52.242;20.900;2023-09-18T00:04:11;19.57;74.60
70676;DHT22;59069;52.242;20.900;2023-09-18T00:06:37;19.54;74.79
70676;DHT22;59069;52.242;20.900;2023-09-18T00:09:02;19.47;74.97
70676;DHT22;59069;52.242;20.900;2023-09-18T00:11:28;19.49;75.16
70676;DHT22;59069;52.242;20.900;2023-09-18T00:13:53;19.44;75.34
70676;DHT22;59069;52.242;20.900;2023-09-18T00:16:18;19.41;75.46
70676;DHT22;59069;52.242;20.900;2023-09-18T00:18:44;19.41;75.52
70676;DHT22;59069;52.242;20.900;2023-09-18T00:21:10;19.40;75.66
70676;DHT22;59069;52.242;20.900;2023-09-18T00:23:37;19.38;75.71
70676;DHT22;59069;52.242;20.900;2023-09-18T00:26:03;19.37;75.85
70676;DHT22;59069;52.242;20.900;2023-09-18T00:28:28;19.37;75.90
70676;DHT22;59069;52.242;20.900;2023-09-18T00:30:54;19.34;75.99
70676;DHT22;59069;52.242;20.900;2023-09-18T00:33:19;19.31;76.07
70676;DHT22;59069;52.242;20.900;2023-09-18T00:35:46;19.27;76.13
70676;DHT22;59069;52.242;20.900;2023-09-18T00:38:12;19.26;76.23
70676;DHT22;59069;52.242;20.900;2023-09-18T00:40:38;19.26;76.32
70676;DHT22;59069;52.242;20.900;2023-09-18T00:43:03;19.20;76.45
70676;DHT22;59069;52.242;20.900;2023-09-18T00:45:29;19.17;76.58
70676;DHT22;59069;52.242;20.900;2023-09-18T00:47:54;19.13;76.81
70676;DHT22;59069;52.242;20.900;2023-09-18T00:50:20;19.12;77.00
70676;DHT22;59069;52.242;20.900;2023-09-18T00:52:47;19.09;77.10
70676;DHT22;59069;52.242;20.900;2023-09-18T00:55:12;19.07;77.30
70676;DHT22;59069;52.242;20.900;2023-09-18T00:57:38;19.06;77.42
70676;DHT22;59069;52.242;20.900;2023-09-18T01:00:04;19.06;77.55
70676;DHT22;59069;52.242;20.900;2023-09-18T01:02:31;19.03;77.67
70676;DHT22;59069;52.242;20.900;2023-09-18T01:04:57;19.06;77.74
70676;DHT22;59069;52.242;20.900;2023-09-18T01:07:22;19.02;77.83
70676;DHT22;59069;52.242;20.900;2023-09-18T01:09:48;19.00;77.87
70676;DHT22;59069;52.242;20.900;2023-09-18T01:12:21;18.99;78.03
70676;DHT22;59069;52.242;20.900;2023-09-18T01:17:26;18.96;78.23
70676;DHT22;59069;52.242;20.900;2023-09-18T01:19:51;18.93;78.33
70676;DHT22;59069;52.242;20.900;2023-09-18T01:22:18;18.93;78.46
70676;DHT22;59069;52.242;20.900;2023-09-18T01:24:45;18.92;78.55
70676;DHT22;59069;52.242;20.900;2023-09-18T01:27:13;18.91;78.60
70676;DHT22;59069;52.242;20.900;2023-09-18T01:29:40;18.86;78.68
70676;DHT22;59069;52.242;20.900;2023-09-18T01:32:05;18.86;78.80
70676;DHT22;59069;52.242;20.900;2023-09-18T01:34:33;18.83;78.87
70676;DHT22;59069;52.242;20.900;2023-09-18T01:37:03;18.88;78.93
70676;DHT22;59069;52.242;20.900;2023-09-18T01:39:30;18.86;79.05
70676;DHT22;59069;52.242;20.900;2023-09-18T01:41:59;18.85;79.04
70676;DHT22;59069;52.242;20.900;2023-09-18T01:44:25;18.82;79.05
70676;DHT22;59069;52.242;20.900;2023-09-18T01:46:51;18.82;79.04
70676;DHT22;59069;52.242;20.900;2023-09-18T01:49:31;18.82;78.99
70676;DHT22;59069;52.242;20.900;2023-09-18T01:51:57;18.82;79.02
70676;DHT22;59069;52.242;20.900;2023-09-18T01:54:22;18.79;79.12
70676;DHT22;59069;52.242;20.900;2023-09-18T01:56:48;18.77;79.19
70676;DHT22;59069;52.242;20.900;2023-09-18T01:59:13;18.77;79.21
70676;DHT22;59069;52.242;20.900;2023-09-18T02:01:39;18.76;79.25
70676;DHT22;59069;52.242;20.900;2023-09-18T02:04:04;18.76;79.33
70676;DHT22;59069;52.242;20.900;2023-09-18T02:06:30;18.75;79.38
70676;DHT22;59069;52.242;20.900;2023-09-18T02:08:55;18.76;79.37
70676;DHT22;59069;52.242;20.900;2023-09-18T02:11:21;18.75;79.39
70676;DHT22;59069;52.242;20.900;2023-09-18T02:13:46;18.73;79.42
70676;DHT22;59069;52.242;20.900;2023-09-18T02:16:12;18.79;79.38
70676;DHT22;59069;52.242;20.900;2023-09-18T02:18:37;18.76;79.37
70676;DHT22;59069;52.242;20.900;2023-09-18T02:21:02;18.79;79.38
70676;DHT22;59069;52.242;20.900;2023-09-18T02:23:28;18.81;79.34
70676;DHT22;59069;52.242;20.900;2023-09-18T02:25:57;18.82;79.26
70676;DHT22;59069;52.242;20.900;2023-09-18T02:28:23;18.82;79.18
70676;DHT22;59069;52.242;20.900;2023-09-18T02:30:48;18.88;79.11
70676;DHT22;59069;52.242;20.900;2023-09-18T02:33:15;18.85;79.03
70676;DHT22;59069;52.242;20.900;2023-09-18T02:35:40;18.92;78.94
70676;DHT22;59069;52.242;20.900;2023-09-18T02:38:06;18.92;78.80
70676;DHT22;59069;52.242;20.900;2023-09-18T02:40:31;18.93;78.71
70676;DHT22;59069;52.242;20.900;2023-09-18T02:42:56;18.93;78.61
70676;DHT22;59069;52.242;20.900;2023-09-18T02:45:22;18.95;78.50
70676;DHT22;59069;52.242;20.900;2023-09-18T02:47:47;18.98;78.38
70676;DHT22;59069;52.242;20.900;2023-09-18T02:50:13;18.99;78.32
70676;DHT22;59069;52.242;20.900;2023-09-18T02:52:38;19.00;78.25
70676;DHT22;59069;52.242;20.900;2023-09-18T02:55:04;19.06;78.21
70676;DHT22;59069;52.242;20.900;2023-09-18T02:57:30;19.04;78.06
70676;DHT22;59069;52.242;20.900;2023-09-18T02:59:55;19.09;78.06
70676;DHT22;59069;52.242;20.900;2023-09-18T03:02:20;19.07;77.96
70676;DHT22;59069;52.242;20.900;2023-09-18T03:04:46;19.12;77.86
70676;DHT22;59069;52.242;20.900;2023-09-18T03:07:14;19.13;77.76
70676;DHT22;59069;52.242;20.900;2023-09-18T03:09:41;19.17;77.60
70676;DHT22;59069;52.242;20.900;2023-09-18T03:12:07;19.17;77.50
70676;DHT22;59069;52.242;20.900;2023-09-18T03:14:32;19.19;77.42
70676;DHT22;59069;52.242;20.900;2023-09-18T03:16:58;19.17;77.41
70676;DHT22;59069;52.242;20.900;2023-09-18T03:19:23;19.20;77.38
70676;DHT22;59069;52.242;20.900;2023-09-18T03:21:50;19.20;77.33
70676;DHT22;59069;52.242;20.900;2023-09-18T03:24:15;19.22;77.34
70676;DHT22;59069;52.242;20.900;2023-09-18T03:26:40;19.23;77.37
70676;DHT22;59069;52.242;20.900;2023-09-18T03:29:06;19.19;77.38
70676;DHT22;59069;52.242;20.900;2023-09-18T03:31:31;19.19;77.41
70676;DHT22;59069;52.242;20.900;2023-09-18T03:33:57;19.17;77.42
70676;DHT22;59069;52.242;20.900;2023-09-18T03:36:22;19.17;77.42
70676;DHT22;59069;52.242;20.900;2023-09-18T03:38:51;19.20;77.48
70676;DHT22;59069;52.242;20.900;2023-09-18T03:41:16;19.17;77.47
70676;DHT22;59069;52.242;20.900;2023-09-18T03:43:41;19.16;77.52
70676;DHT22;59069;52.242;20.900;2023-09-18T03:46:07;19.16;77.54
70676;DHT22;59069;52.242;20.900;2023-09-18T03:48:33;19.17;77.61
70676;DHT22;59069;52.242;20.900;2023-09-18T03:51:05;19.13;77.62
70676;DHT22;59069;52.242;20.900;2023-09-18T03:53:35;19.13;77.65
70676;DHT22;59069;52.242;20.900;2023-09-18T03:56:00;19.13;77.65
70676;DHT22;59069;52.242;20.900;2023-09-18T03:58:26;19.09;77.78
70676;DHT22;59069;52.242;20.900;2023-09-18T04:00:52;19.09;77.84
70676;DHT22;59069;52.242;20.900;2023-09-18T04:03:17;19.06;77.94
70676;DHT22;59069;52.242;20.900;2023-09-18T04:05:43;19.04;77.98
70676;DHT22;59069;52.242;20.900;2023-09-18T04:08:08;19.07;78.06
70676;DHT22;59069;52.242;20.900;2023-09-18T04:10:34;19.03;78.06
70676;DHT22;59069;52.242;20.900;2023-09-18T04:13:00;19.04;78.04
70676;DHT22;59069;52.242;20.900;2023-09-18T04:15:25;19.03;78.10
70676;DHT22;59069;52.242;20.900;2023-09-18T04:17:50;19.02;78.18
70676;DHT22;59069;52.242;20.900;2023-09-18T04:20:16;19.00;78.20
70676;DHT22;59069;52.242;20.900;2023-09-18T04:22:43;18.98;78.20
70676;DHT22;59069;52.242;20.900;2023-09-18T04:25:10;18.96;78.21
70676;DHT22;59069;52.242;20.900;2023-09-18T04:27:35;18.95;78.21
70676;DHT22;59069;52.242;20.900;2023-09-18T04:30:01;18.93;78.24
70676;DHT22;59069;52.242;20.900;2023-09-18T04:32:29;18.92;78.26
70676;DHT22;59069;52.242;20.900;2023-09-18T04:34:54;18.92;78.30
70676;DHT22;59069;52.242;20.900;2023-09-18T04:37:20;18.93;78.36
70676;DHT22;59069;52.242;20.900;2023-09-18T04:39:45;18.93;78.43
70676;DHT22;59069;52.242;20.900;2023-09-18T04:42:11;18.92;78.47
70676;DHT22;59069;52.242;20.900;2023-09-18T04:44:36;18.92;78.47
70676;DHT22;59069;52.242;20.900;2023-09-18T04:47:01;18.91;78.54
70676;DHT22;59069;52.242;20.900;2023-09-18T04:49:28;18.91;78.61
70676;DHT22;59069;52.242;20.900;2023-09-18T04:51:54;18.91;78.65
70676;DHT22;59069;52.242;20.900;2023-09-18T04:54:20;18.91;78.70
70676;DHT22;59069;52.242;20.900;2023-09-18T04:56:45;18.91;78.76
70676;DHT22;59069;52.242;20.900;2023-09-18T04:59:11;18.88;78.81
70676;DHT22;59069;52.242;20.900;2023-09-18T05:01:36;18.91;78.91
70676;DHT22;59069;52.242;20.900;2023-09-18T05:04:01;18.95;78.92
70676;DHT22;59069;52.242;20.900;2023-09-18T05:06:27;18.93;78.88
70676;DHT22;59069;52.242;20.900;2023-09-18T05:08:52;18.93;78.89
70676;DHT22;59069;52.242;20.900;2023-09-18T05:11:19;18.96;78.87
70676;DHT22;59069;52.242;20.900;2023-09-18T05:13:44;18.93;78.92
70676;DHT22;59069;52.242;20.900;2023-09-18T05:16:10;18.96;78.92
70676;DHT22;59069;52.242;20.900;2023-09-18T05:18:35;18.99;78.91
70676;DHT22;59069;52.242;20.900;2023-09-18T05:21:01;18.99;78.95
70676;DHT22;59069;52.242;20.900;2023-09-18T05:23:30;18.99;79.00
70676;DHT22;59069;52.242;20.900;2023-09-18T05:25:55;19.02;79.02
70676;DHT22;59069;52.242;20.900;2023-09-18T05:28:21;19.06;79.04
70676;DHT22;59069;52.242;20.900;2023-09-18T05:30:46;19.04;79.03
70676;DHT22;59069;52.242;20.900;2023-09-18T05:33:11;19.09;79.11
70676;DHT22;59069;52.242;20.900;2023-09-18T05:35:42;19.13;79.12
70676;DHT22;59069;52.242;20.900;2023-09-18T05:38:09;19.14;79.05
70676;DHT22;59069;52.242;20.900;2023-09-18T05:40:36;19.22;78.95
70676;DHT22;59069;52.242;20.900;2023-09-18T05:43:02;19.22;78.90
70676;DHT22;59069;52.242;20.900;2023-09-18T05:45:27;19.26;78.88
70676;DHT22;59069;52.242;20.900;2023-09-18T05:47:53;19.31;78.80
70676;DHT22;59069;52.242;20.900;2023-09-18T05:50:19;19.34;78.76
70676;DHT22;59069;52.242;20.900;2023-09-18T05:52:45;19.33;78.69
70676;DHT22;59069;52.242;20.900;2023-09-18T05:55:13;19.40;78.99
70676;DHT22;59069;52.242;20.900;2023-09-18T05:57:38;19.54;79.36
70676;DHT22;59069;52.242;20.900;2023-09-18T06:00:04;19.68;79.08
70676;DHT22;59069;52.242;20.900;2023-09-18T06:02:30;19.85;79.06
70676;DHT22;59069;52.242;20.900;2023-09-18T06:04:56;20.04;78.68
70676;DHT22;59069;52.242;20.900;2023-09-18T06:07:24;20.16;77.15
70676;DHT22;59069;52.242;20.900;2023-09-18T06:09:49;20.23;76.79
70676;DHT22;59069;52.242;20.900;2023-09-18T06:12:15;20.36;77.06
70676;DHT22;59069;52.242;20.900;2023-09-18T06:14:40;20.52;77.27
70676;DHT22;59069;52.242;20.900;2023-09-18T06:17:06;20.64;76.56
70676;DHT22;59069;52.242;20.900;2023-09-18T06:19:32;20.80;76.16
70676;DHT22;59069;52.242;20.900;2023-09-18T06:21:58;21.03;76.10
70676;DHT22;59069;52.242;20.900;2023-09-18T06:24:23;21.21;75.58
70676;DHT22;59069;52.242;20.900;2023-09-18T06:26:49;21.41;74.74
70676;DHT22;59069;52.242;20.900;2023-09-18T06:29:16;21.58;73.70
70676;DHT22;59069;52.242;20.900;2023-09-18T06:31:41;21.75;73.49
70676;DHT22;59069;52.242;20.900;2023-09-18T06:34:06;21.89;72.33
70676;DHT22;59069;52.242;20.900;2023-09-18T06:36:32;22.02;71.95
70676;DHT22;59069;52.242;20.900;2023-09-18T06:38:58;22.13;71.51
70676;DHT22;59069;52.242;20.900;2023-09-18T06:41:23;22.23;71.13
70676;DHT22;59069;52.242;20.900;2023-09-18T06:43:49;22.41;70.53
70676;DHT22;59069;52.242;20.900;2023-09-18T06:46:14;22.58;70.06
70676;DHT22;59069;52.242;20.900;2023-09-18T06:48:39;22.72;69.35
70676;DHT22;59069;52.242;20.900;2023-09-18T06:51:05;22.90;69.16
70676;DHT22;59069;52.242;20.900;2023-09-18T06:53:31;23.08;68.81
70676;DHT22;59069;52.242;20.900;2023-09-18T06:55:57;23.25;68.30
70676;DHT22;59069;52.242;20.900;2023-09-18T06:58:22;23.45;67.43
70676;DHT22;59069;52.242;20.900;2023-09-18T07:00:47;23.66;66.98
70676;DHT22;59069;52.242;20.900;2023-09-18T07:03:15;23.88;66.86
70676;DHT22;59069;52.242;20.900;2023-09-18T07:05:41;24.17;65.81
70676;DHT22;59069;52.242;20.900;2023-09-18T07:08:07;24.37;64.97
70676;DHT22;59069;52.242;20.900;2023-09-18T07:10:37;24.49;62.96
70676;DHT22;59069;52.242;20.900;2023-09-18T07:13:03;24.68;63.63
70676;DHT22;59069;52.242;20.900;2023-09-18T07:15:28;24.82;63.13
70676;DHT22;59069;52.242;20.900;2023-09-18T07:17:54;24.98;62.76
70676;DHT22;59069;52.242;20.900;2023-09-18T07:20:19;25.08;61.96
70676;DHT22;59069;52.242;20.900;2023-09-18T07:22:47;25.22;61.34
70676;DHT22;59069;52.242;20.900;2023-09-18T07:25:13;25.20;60.95
70676;DHT22;59069;52.242;20.900;2023-09-18T07:27:39;25.30;61.12
70676;DHT22;59069;52.242;20.900;2023-09-18T07:30:09;25.36;60.94
70676;DHT22;59069;52.242;20.900;2023-09-18T07:32:35;25.40;60.95
70676;DHT22;59069;52.242;20.900;2023-09-18T07:35:01;25.44;60.62
70676;DHT22;59069;52.242;20.900;2023-09-18T07:37:26;25.54;60.69
70676;DHT22;59069;52.242;20.900;2023-09-18T07:39:55;25.63;60.61
70676;DHT22;59069;52.242;20.900;2023-09-18T07:42:24;25.71;60.61
70676;DHT22;59069;52.242;20.900;2023-09-18T07:44:50;25.88;60.45
70676;DHT22;59069;52.242;20.900;2023-09-18T07:47:15;26.00;60.00
70676;DHT22;59069;52.242;20.900;2023-09-18T07:49:40;26.09;59.23
70676;DHT22;59069;52.242;20.900;2023-09-18T07:52:06;26.21;58.85
70676;DHT22;59069;52.242;20.900;2023-09-18T07:54:31;26.31;58.46
70676;DHT22;59069;52.242;20.900;2023-09-18T07:56:56;26.45;58.27
70676;DHT22;59069;52.242;20.900;2023-09-18T07:59:22;26.60;57.87
70676;DHT22;59069;52.242;20.900;2023-09-18T08:01:50;26.72;57.27
70676;DHT22;59069;52.242;20.900;2023-09-18T08:04:15;26.86;57.40
70676;DHT22;59069;52.242;20.900;2023-09-18T08:06:41;26.99;57.78
70676;DHT22;59069;52.242;20.900;2023-09-18T08:09:07;27.11;56.15
70676;DHT22;59069;52.242;20.900;2023-09-18T08:11:35;27.20;57.38
70676;DHT22;59069;52.242;20.900;2023-09-18T08:14:01;27.38;55.37
70676;DHT22;59069;52.242;20.900;2023-09-18T08:16:28;27.62;54.82
70676;DHT22;59069;52.242;20.900;2023-09-18T08:18:54;27.81;55.76
70676;DHT22;59069;52.242;20.900;2023-09-18T08:21:21;27.98;52.14
70676;DHT22;59069;52.242;20.900;2023-09-18T08:23:48;27.98;51.68
70676;DHT22;59069;52.242;20.900;2023-09-18T08:26:14;27.84;53.01
70676;DHT22;59069;52.242;20.900;2023-09-18T08:28:39;27.81;54.52
70676;DHT22;59069;52.242;20.900;2023-09-18T08:31:09;28.01;55.55
70676;DHT22;59069;52.242;20.900;2023-09-18T08:33:34;28.29;52.69
70676;DHT22;59069;52.242;20.900;2023-09-18T08:36:01;28.46;53.29
70676;DHT22;59069;52.242;20.900;2023-09-18T08:38:27;28.65;51.79
70676;DHT22;59069;52.242;20.900;2023-09-18T08:40:54;28.86;52.12
70676;DHT22;59069;52.242;20.900;2023-09-18T08:43:19;29.21;54.32
70676;DHT22;59069;52.242;20.900;2023-09-18T08:45:54;29.49;49.26
70676;DHT22;59069;52.242;20.900;2023-09-18T08:48:20;29.63;48.46
70676;DHT22;59069;52.242;20.900;2023-09-18T08:50:47;29.45;48.81
70676;DHT22;59069;52.242;20.900;2023-09-18T08:53:14;29.12;49.62
70676;DHT22;59069;52.242;20.900;2023-09-18T08:55:40;28.70;50.62
70676;DHT22;59069;52.242;20.900;2023-09-18T08:58:06;28.29;51.73
70676;DHT22;59069;52.242;20.900;2023-09-18T09:00:33;27.96;52.72
70676;DHT22;59069;52.242;20.900;2023-09-18T09:03:01;27.75;53.66
70676;DHT22;59069;52.242;20.900;2023-09-18T09:05:26;27.62;54.09
70676;DHT22;59069;52.242;20.900;2023-09-18T09:07:52;27.50;54.88
70676;DHT22;59069;52.242;20.900;2023-09-18T09:10:17;27.50;55.44
70676;DHT22;59069;52.242;20.900;2023-09-18T09:12:56;27.58;54.45
70676;DHT22;59069;52.242;20.900;2023-09-18T09:15:27;27.62;54.44
70676;DHT22;59069;52.242;20.900;2023-09-18T09:18:07;27.63;54.67
70676;DHT22;59069;52.242;20.900;2023-09-18T09:20:33;27.59;54.11
70676;DHT22;59069;52.242;20.900;2023-09-18T09:23:03;27.57;54.29
70676;DHT22;59069;52.242;20.900;2023-09-18T09:25:33;27.62;54.43
70676;DHT22;59069;52.242;20.900;2023-09-18T09:28:06;27.69;53.73
70676;DHT22;59069;52.242;20.900;2023-09-18T09:30:34;27.62;53.98
70676;DHT22;59069;52.242;20.900;2023-09-18T09:33:03;27.65;52.94
70676;DHT22;59069;52.242;20.900;2023-09-18T09:35:34;27.69;52.07
70676;DHT22;59069;52.242;20.900;2023-09-18T09:38:06;27.75;51.97
70676;DHT22;59069;52.242;20.900;2023-09-18T09:40:32;27.86;50.98
70676;DHT22;59069;52.242;20.900;2023-09-18T09:42:58;27.92;50.61
70676;DHT22;59069;52.242;20.900;2023-09-18T09:45:28;27.99;51.42
70676;DHT22;59069;52.242;20.900;2023-09-18T09:48:02;28.03;50.65
70676;DHT22;59069;52.242;20.900;2023-09-18T09:50:29;28.16;50.12
70676;DHT22;59069;52.242;20.900;2023-09-18T09:52:55;28.33;50.92
70676;DHT22;59069;52.242;20.900;2023-09-18T09:55:31;28.60;49.44
70676;DHT22;59069;52.242;20.900;2023-09-18T09:58:06;28.87;48.95
70676;DHT22;59069;52.242;20.900;2023-09-18T10:00:32;28.91;46.94
70676;DHT22;59069;52.242;20.900;2023-09-18T10:03:06;28.94;47.35
70676;DHT22;59069;52.242;20.900;2023-09-18T10:05:36;28.81;47.05
70676;DHT22;59069;52.242;20.900;2023-09-18T10:08:07;28.73;47.41
70676;DHT22;59069;52.242;20.900;2023-09-18T10:10:38;28.53;47.45
70676;DHT22;59069;52.242;20.900;2023-09-18T10:13:09;28.42;48.00
70676;DHT22;59069;52.242;20.900;2023-09-18T10:15:37;28.39;47.54
70676;DHT22;59069;52.242;20.900;2023-09-18T10:18:28;28.35;47.64
70676;DHT22;59069;52.242;20.900;2023-09-18T10:21:03;28.33;48.63
70676;DHT22;59069;52.242;20.900;2023-09-18T10:26:10;28.29;48.55
70676;DHT22;59069;52.242;20.900;2023-09-18T10:28:38;28.26;48.45
70676;DHT22;59069;52.242;20.900;2023-09-18T10:31:05;28.30;48.95
70676;DHT22;59069;52.242;20.900;2023-09-18T10:33:31;28.33;48.56
70676;DHT22;59069;52.242;20.900;2023-09-18T10:35:58;28.43;47.98
70676;DHT22;59069;52.242;20.900;2023-09-18T10:38:26;28.52;47.22
70676;DHT22;59069;52.242;20.900;2023-09-18T10:40:53;28.49;46.95
70676;DHT22;59069;52.242;20.900;2023-09-18T10:43:21;28.42;46.91
70676;DHT22;59069;52.242;20.900;2023-09-18T10:45:50;28.30;47.38
70676;DHT22;59069;52.242;20.900;2023-09-18T10:48:17;28.22;47.39
70676;DHT22;59069;52.242;20.900;2023-09-18T10:50:44;28.14;47.62
70676;DHT22;59069;52.242;20.900;2023-09-18T10:53:11;28.08;47.79
70676;DHT22;59069;52.242;20.900;2023-09-18T10:55:37;27.98;47.65
70676;DHT22;59069;52.242;20.900;2023-09-18T10:58:03;27.91;47.57
70676;DHT22;59069;52.242;20.900;2023-09-18T11:00:31;27.82;47.96
70676;DHT22;59069;52.242;20.900;2023-09-18T11:03:13;27.82;47.95
70676;DHT22;59069;52.242;20.900;2023-09-18T11:05:39;27.77;47.68
70676;DHT22;59069;52.242;20.900;2023-09-18T11:08:32;27.73;47.41
70676;DHT22;59069;52.242;20.900;2023-09-18T11:11:01;27.69;47.54
70676;DHT22;59069;52.242;20.900;2023-09-18T11:13:36;27.68;47.66
70676;DHT22;59069;52.242;20.900;2023-09-18T11:21:30;27.59;48.17
70676;DHT22;59069;52.242;20.900;2023-09-18T11:24:01;27.58;48.25
70676;DHT22;59069;52.242;20.900;2023-09-18T11:26:35;27.57;48.19
70676;DHT22;59069;52.242;20.900;2023-09-18T11:29:06;27.58;47.95
70676;DHT22;59069;52.242;20.900;2023-09-18T11:31:58;27.62;47.81
70676;DHT22;59069;52.242;20.900;2023-09-18T11:34:28;27.65;47.63
70676;DHT22;59069;52.242;20.900;2023-09-18T11:36:57;27.69;47.40
70676;DHT22;59069;52.242;20.900;2023-09-18T11:39:52;27.71;47.34
70676;DHT22;59069;52.242;20.900;2023-09-18T11:42:19;27.77;46.94
70676;DHT22;59069;52.242;20.900;2023-09-18T11:44:49;27.81;46.05
70676;DHT22;59069;52.242;20.900;2023-09-18T11:47:19;27.89;45.76
70676;DHT22;59069;52.242;20.900;2023-09-18T11:52:23;27.91;45.49
70676;DHT22;59069;52.242;20.900;2023-09-18T11:54:50;27.73;45.77
70676;DHT22;59069;52.242;20.900;2023-09-18T11:57:17;27.63;46.18
70676;DHT22;59069;52.242;20.900;2023-09-18T11:59:44;27.59;46.56
70676;DHT22;59069;52.242;20.900;2023-09-18T12:02:12;27.57;46.66
70676;DHT22;59069;52.242;20.900;2023-09-18T12:04:46;27.52;46.54
70676;DHT22;59069;52.242;20.900;2023-09-18T12:07:12;27.57;46.36
70676;DHT22;59069;52.242;20.900;2023-09-18T12:09:39;27.62;46.02
70676;DHT22;59069;52.242;20.900;2023-09-18T12:12:07;27.71;45.84
70676;DHT22;59069;52.242;20.900;2023-09-18T12:14:34;27.78;45.68
70676;DHT22;59069;52.242;20.900;2023-09-18T12:17:00;27.75;45.17
70676;DHT22;59069;52.242;20.900;2023-09-18T12:19:27;27.66;45.24
70676;DHT22;59069;52.242;20.900;2023-09-18T12:21:53;27.63;45.34
70676;DHT22;59069;52.242;20.900;2023-09-18T12:24:25;27.63;45.30
70676;DHT22;59069;52.242;20.900;2023-09-18T12:26:52;27.65;45.33
70676;DHT22;59069;52.242;20.900;2023-09-18T12:29:21;27.72;45.35
70676;DHT22;59069;52.242;20.900;2023-09-18T12:31:47;27.77;45.19
70676;DHT22;59069;52.242;20.900;2023-09-18T12:34:20;27.75;45.02
70676;DHT22;59069;52.242;20.900;2023-09-18T12:36:46;27.73;44.85
70676;DHT22;59069;52.242;20.900;2023-09-18T12:39:15;27.81;45.22
70676;DHT22;59069;52.242;20.900;2023-09-18T12:41:42;27.84;45.06
70676;DHT22;59069;52.242;20.900;2023-09-18T12:44:09;27.91;45.06
70676;DHT22;59069;52.242;20.900;2023-09-18T12:46:36;27.95;44.85
70676;DHT22;59069;52.242;20.900;2023-09-18T12:49:22;27.91;44.73
70676;DHT22;59069;52.242;20.900;2023-09-18T12:52:02;28.03;44.87
70676;DHT22;59069;52.242;20.900;2023-09-18T12:54:45;28.14;44.53
70676;DHT22;59069;52.242;20.900;2023-09-18T12:57:17;28.19;44.20
70676;DHT22;59069;52.242;20.900;2023-09-18T12:59:43;28.22;44.11
70676;DHT22;59069;52.242;20.900;2023-09-18T13:02:12;28.26;44.02
70676;DHT22;59069;52.242;20.900;2023-09-18T13:04:38;28.63;44.35
70676;DHT22;59069;52.242;20.900;2023-09-18T13:07:09;30.35;44.84
70676;DHT22;59069;52.242;20.900;2023-09-18T13:09:35;30.49;38.82
70676;DHT22;59069;52.242;20.900;2023-09-18T13:12:02;30.27;38.97
70676;DHT22;59069;52.242;20.900;2023-09-18T13:14:29;31.81;43.42
70676;DHT22;59069;52.242;20.900;2023-09-18T13:17:00;32.03;36.14
70676;DHT22;59069;52.242;20.900;2023-09-18T13:19:29;31.70;36.37
70676;DHT22;59069;52.242;20.900;2023-09-18T13:21:55;31.56;38.03
70676;DHT22;59069;52.242;20.900;2023-09-18T13:24:30;32.68;38.92
70676;DHT22;59069;52.242;20.900;2023-09-18T13:26:57;34.49;36.86
70676;DHT22;59069;52.242;20.900;2023-09-18T13:29:24;35.34;33.33
70676;DHT22;59069;52.242;20.900;2023-09-18T13:31:50;36.50;31.40
70676;DHT22;59069;52.242;20.900;2023-09-18T13:34:16;37.06;28.65
70676;DHT22;59069;52.242;20.900;2023-09-18T13:36:47;37.27;29.90
70676;DHT22;59069;52.242;20.900;2023-09-18T13:39:13;38.37;29.05
70676;DHT22;59069;52.242;20.900;2023-09-18T13:41:42;39.45;26.75
70676;DHT22;59069;52.242;20.900;2023-09-18T13:44:07;39.38;25.66
70676;DHT22;59069;52.242;20.900;2023-09-18T13:46:33;38.50;25.68
70676;DHT22;59069;52.242;20.900;2023-09-18T13:49:02;36.83;27.13
70676;DHT22;59069;52.242;20.900;2023-09-18T13:51:29;35.37;29.31
70676;DHT22;59069;52.242;20.900;2023-09-18T13:53:54;36.05;32.63
70676;DHT22;59069;52.242;20.900;2023-09-18T13:56:21;37.17;29.78
70676;DHT22;59069;52.242;20.900;2023-09-18T13:58:47;38.25;28.39
70676;DHT22;59069;52.242;20.900;2023-09-18T14:01:12;39.22;27.01
70676;DHT22;59069;52.242;20.900;2023-09-18T14:03:40;39.93;25.55
70676;DHT22;59069;52.242;20.900;2023-09-18T14:06:07;40.36;25.59
70676;DHT22;59069;52.242;20.900;2023-09-18T14:08:34;39.99;25.04
70676;DHT22;59069;52.242;20.900;2023-09-18T14:11:00;40.06;25.75
70676;DHT22;59069;52.242;20.900;2023-09-18T14:13:25;40.33;24.63
70676;DHT22;59069;52.242;20.900;2023-09-18T14:15:50;40.13;23.58
70676;DHT22;59069;52.242;20.900;2023-09-18T14:18:16;40.17;24.62
70676;DHT22;59069;52.242;20.900;2023-09-18T14:20:41;40.33;24.12
70676;DHT22;59069;52.242;20.900;2023-09-18T14:23:07;39.45;24.11
70676;DHT22;59069;52.242;20.900;2023-09-18T14:25:32;39.18;25.93
70676;DHT22;59069;52.242;20.900;2023-09-18T14:27:58;38.81;26.83
70676;DHT22;59069;52.242;20.900;2023-09-18T14:30:23;38.81;25.97
70676;DHT22;59069;52.242;20.900;2023-09-18T14:32:54;37.61;26.10
70676;DHT22;59069;52.242;20.900;2023-09-18T14:35:20;36.73;28.96
70676;DHT22;59069;52.242;20.900;2023-09-18T14:37:46;37.28;29.53
70676;DHT22;59069;52.242;20.900;2023-09-18T14:40:11;37.98;28.11
70676;DHT22;59069;52.242;20.900;2023-09-18T14:42:37;38.60;26.93
70676;DHT22;59069;52.242;20.900;2023-09-18T14:45:03;39.19;26.43
70676;DHT22;59069;52.242;20.900;2023-09-18T14:47:29;39.44;25.57
70676;DHT22;59069;52.242;20.900;2023-09-18T14:49:54;39.45;25.34
70676;DHT22;59069;52.242;20.900;2023-09-18T14:52:19;38.19;25.57
70676;DHT22;59069;52.242;20.900;2023-09-18T14:54:48;36.67;27.38
70676;DHT22;59069;52.242;20.900;2023-09-18T14:57:14;35.37;29.45
70676;DHT22;59069;52.242;20.900;2023-09-18T14:59:39;34.08;31.41
70676;DHT22;59069;52.242;20.900;2023-09-18T15:02:07;32.98;33.24
70676;DHT22;59069;52.242;20.900;2023-09-18T15:04:33;32.13;34.70
70676;DHT22;59069;52.242;20.900;2023-09-18T15:06:59;31.51;35.97
70676;DHT22;59069;52.242;20.900;2023-09-18T15:09:25;30.95;37.00
70676;DHT22;59069;52.242;20.900;2023-09-18T15:11:50;30.38;38.10
70676;DHT22;59069;52.242;20.900;2023-09-18T15:14:16;29.96;39.02
70676;DHT22;59069;52.242;20.900;2023-09-18T15:16:41;29.63;39.84
70676;DHT22;59069;52.242;20.900;2023-09-18T15:19:06;29.35;40.59
70676;DHT22;59069;52.242;20.900;2023-09-18T15:21:33;29.08;41.24
70676;DHT22;59069;52.242;20.900;2023-09-18T15:23:59;28.83;41.77
70676;DHT22;59069;52.242;20.900;2023-09-18T15:26:24;28.59;42.43
70676;DHT22;59069;52.242;20.900;2023-09-18T15:28:50;28.42;43.00